sensor_id;sensor_type;location;lat;lon;timestamp;temperature;humidity
8780;DHT22;62328;51.19929245;4.42130175;2022-12-18T00:00:49;-0.70;99.90
8780;DHT22;62328;51.19929245;4.42130175;2022-12-18T00:03:16;-0.60;99.90
8780;DHT22;62328;51.19929245;4.42130175;2022-12-18T00:05:47;-0.70;99.90
8780;DHT22;62328;51.19929245;4.42130175;2022-12-18T00:08:14;-0.70;99.90
8780;DHT22;62328;51.19929245;4.42130175;2022-12-18T00:10:41;-0.60;99.90
8780;DHT22;62328;51.19929245;4.42130175;2022-12-18T00:13:08;-0.70;99.90
8780;DHT22;62328;51.19929245;4.42130175;2022-12-18T00:15:38;-0.70;99.90
8780;DHT22;62328;51.19929245;4.42130175;2022-12-18T00:18:05;-0.70;99.90
8780;DHT22;62328;51.19929245;4.42130175;2022-12-18T00:20:36;-0.70;99.90
8780;DHT22;62328;51.19929245;4.42130175;2022-12-18T00:23:03;-0.70;99.90
8780;DHT22;62328;51.19929245;4.42130175;2022-12-18T00:25:32;-0.70;99.90
8780;DHT22;62328;51.19929245;4.42130175;2022-12-18T00:28:00;-0.70;99.90
8780;DHT22;62328;51.19929245;4.42130175;2022-12-18T00:30:27;-0.70;99.90
8780;DHT22;62328;51.19929245;4.42130175;2022-12-18T00:32:55;-0.80;99.90
8780;DHT22;62328;51.19929245;4.42130175;2022-12-18T00:35:22;-0.90;99.90
8780;DHT22;62328;51.19929245;4.42130175;2022-12-18T00:37:49;-0.80;99.90
8780;DHT22;62328;51.19929245;4.42130175;2022-12-18T00:40:16;-0.80;99.90
8780;DHT22;62328;51.19929245;4.42130175;2022-12-18T00:42:43;-0.80;99.90
8780;DHT22;62328;51.19929245;4.42130175;2022-12-18T00:45:21;-0.90;99.90
8780;DHT22;62328;51.19929245;4.42130175;2022-12-18T00:47:48;-0.80;99.90
8780;DHT22;62328;51.19929245;4.42130175;2022-12-18T00:50:16;-0.90;99.90
8780;DHT22;62328;51.19929245;4.42130175;2022-12-18T00:52:43;-0.90;99.90
8780;DHT22;62328;51.19929245;4.42130175;2022-12-18T00:55:10;-1.00;99.90
8780;DHT22;62328;51.19929245;4.42130175;2022-12-18T00:57:40;-1.00;99.90
8780;DHT22;62328;51.19929245;4.42130175;2022-12-18T01:00:09;-1.00;99.90
8780;DHT22;62328;51.19929245;4.42130175;2022-12-18T01:02:36;-1.00;99.90
8780;DHT22;62328;51.19929245;4.42130175;2022-12-18T01:05:03;-1.10;99.90
8780;DHT22;62328;51.19929245;4.42130175;2022-12-18T01:07:32;-1.10;99.90
8780;DHT22;62328;51.19929245;4.42130175;2022-12-18T01:09:59;-1.10;99.90
8780;DHT22;62328;51.19929245;4.42130175;2022-12-18T01:12:26;-1.20;99.90
8780;DHT22;62328;51.19929245;4.42130175;2022-12-18T01:14:53;-1.20;99.90
8780;DHT22;62328;51.19929245;4.42130175;2022-12-18T01:17:20;-1.10;99.90
8780;DHT22;62328;51.19929245;4.42130175;2022-12-18T01:19:46;-1.10;99.90
8780;DHT22;62328;51.19929245;4.42130175;2022-12-18T01:22:14;-1.10;99.90
8780;DHT22;62328;51.19929245;4.42130175;2022-12-18T01:24:42;-1.20;99.90
8780;DHT22;62328;51.19929245;4.42130175;2022-12-18T01:27:09;-1.20;99.90
8780;DHT22;62328;51.19929245;4.42130175;2022-12-18T01:29:36;-1.10;99.90
8780;DHT22;62328;51.19929245;4.42130175;2022-12-18T01:32:04;-1.10;99.90
8780;DHT22;62328;51.19929245;4.42130175;2022-12-18T01:34:32;-1.10;99.90
8780;DHT22;62328;51.19929245;4.42130175;2022-12-18T01:37:02;-1.10;99.90
8780;DHT22;62328;51.19929245;4.42130175;2022-12-18T01:39:29;-1.00;99.90
8780;DHT22;62328;51.19929245;4.42130175;2022-12-18T01:41:59;-1.00;99.90
8780;DHT22;62328;51.19929245;4.42130175;2022-12-18T01:45:03;-1.00;99.90
8780;DHT22;62328;51.19929245;4.42130175;2022-12-18T01:47:36;-1.00;99.90
8780;DHT22;62328;51.19929245;4.42130175;2022-12-18T01:50:09;-1.00;99.90
8780;DHT22;62328;51.19929245;4.42130175;2022-12-18T01:52:41;-1.00;99.90
8780;DHT22;62328;51.19929245;4.42130175;2022-12-18T01:55:10;-1.00;99.90
8780;DHT22;62328;51.19929245;4.42130175;2022-12-18T01:57:40;-1.10;99.90
8780;DHT22;62328;51.19929245;4.42130175;2022-12-18T02:00:10;-1.00;99.90
8780;DHT22;62328;51.19929245;4.42130175;2022-12-18T02:02:37;-1.00;99.90
8780;DHT22;62328;51.19929245;4.42130175;2022-12-18T02:05:06;-1.10;99.90
8780;DHT22;62328;51.19929245;4.42130175;2022-12-18T02:07:42;-1.10;99.90
8780;DHT22;62328;51.19929245;4.42130175;2022-12-18T02:10:13;-1.00;99.90
8780;DHT22;62328;51.19929245;4.42130175;2022-12-18T02:12:48;-1.00;99.90
8780;DHT22;62328;51.19929245;4.42130175;2022-12-18T02:15:25;-1.00;99.90
8780;DHT22;62328;51.19929245;4.42130175;2022-12-18T02:17:56;-1.10;99.90
8780;DHT22;62328;51.19929245;4.42130175;2022-12-18T02:20:30;-1.20;99.90
8780;DHT22;62328;51.19929245;4.42130175;2022-12-18T02:23:09;-1.30;99.90
8780;DHT22;62328;51.19929245;4.42130175;2022-12-18T02:25:57;-1.30;99.90
8780;DHT22;62328;51.19929245;4.42130175;2022-12-18T02:28:33;-1.30;99.90
8780;DHT22;62328;51.19929245;4.42130175;2022-12-18T02:31:03;-1.30;99.90
8780;DHT22;62328;51.19929245;4.42130175;2022-12-18T02:33:32;-1.30;99.90
8780;DHT22;62328;51.19929245;4.42130175;2022-12-18T02:36:01;-1.30;99.90
8780;DHT22;62328;51.19929245;4.42130175;2022-12-18T02:38:29;-1.30;99.90
8780;DHT22;62328;51.19929245;4.42130175;2022-12-18T02:40:59;-1.20;99.90
8780;DHT22;62328;51.19929245;4.42130175;2022-12-18T02:43:27;-1.30;99.90
8780;DHT22;62328;51.19929245;4.42130175;2022-12-18T02:45:59;-1.20;99.90
8780;DHT22;62328;51.19929245;4.42130175;2022-12-18T02:48:29;-1.20;99.90
8780;DHT22;62328;51.19929245;4.42130175;2022-12-18T02:51:02;-1.20;99.90
8780;DHT22;62328;51.19929245;4.42130175;2022-12-18T02:53:35;-1.20;99.90
8780;DHT22;62328;51.19929245;4.42130175;2022-12-18T02:56:09;-1.20;99.90
8780;DHT22;62328;51.19929245;4.42130175;2022-12-18T02:58:45;-1.20;99.90
8780;DHT22;62328;51.19929245;4.42130175;2022-12-18T03:01:16;-1.20;99.90
8780;DHT22;62328;51.19929245;4.42130175;2022-12-18T03:03:49;-1.30;99.90
8780;DHT22;62328;51.19929245;4.42130175;2022-12-18T03:06:22;-1.30;99.90
8780;DHT22;62328;51.19929245;4.42130175;2022-12-18T03:08:54;-1.20;99.90
8780;DHT22;62328;51.19929245;4.42130175;2022-12-18T03:11:26;-1.20;99.90
8780;DHT22;62328;51.19929245;4.42130175;2022-12-18T03:14:09;-1.20;99.90
8780;DHT22;62328;51.19929245;4.42130175;2022-12-18T03:16:39;-1.30;99.90
8780;DHT22;62328;51.19929245;4.42130175;2022-12-18T03:19:14;-1.30;99.90
8780;DHT22;62328;51.19929245;4.42130175;2022-12-18T03:21:45;-1.30;99.90
8780;DHT22;62328;51.19929245;4.42130175;2022-12-18T03:24:15;-1.30;99.90
8780;DHT22;62328;51.19929245;4.42130175;2022-12-18T03:26:47;-1.30;99.90
8780;DHT22;62328;51.19929245;4.42130175;2022-12-18T03:29:18;-1.30;99.90
8780;DHT22;62328;51.19929245;4.42130175;2022-12-18T03:31:51;-1.30;99.90
8780;DHT22;62328;51.19929245;4.42130175;2022-12-18T03:34:22;-1.30;99.90
8780;DHT22;62328;51.19929245;4.42130175;2022-12-18T03:36:50;-1.40;99.90
8780;DHT22;62328;51.19929245;4.42130175;2022-12-18T03:39:17;-1.40;99.90
8780;DHT22;62328;51.19929245;4.42130175;2022-12-18T03:41:50;-1.40;99.90
8780;DHT22;62328;51.19929245;4.42130175;2022-12-18T03:44:20;-1.40;99.90
8780;DHT22;62328;51.19929245;4.42130175;2022-12-18T03:46:53;-1.50;99.90
8780;DHT22;62328;51.19929245;4.42130175;2022-12-18T03:49:25;-1.40;99.90
8780;DHT22;62328;51.19929245;4.42130175;2022-12-18T03:52:00;-1.40;99.90
8780;DHT22;62328;51.19929245;4.42130175;2022-12-18T03:54:30;-1.40;99.90
8780;DHT22;62328;51.19929245;4.42130175;2022-12-18T03:57:03;-1.40;99.90
8780;DHT22;62328;51.19929245;4.42130175;2022-12-18T03:59:33;-1.50;99.90
8780;DHT22;62328;51.19929245;4.42130175;2022-12-18T04:02:01;-1.40;99.90
8780;DHT22;62328;51.19929245;4.42130175;2022-12-18T04:04:30;-1.30;99.90
8780;DHT22;62328;51.19929245;4.42130175;2022-12-18T04:06:58;-1.30;99.90
8780;DHT22;62328;51.19929245;4.42130175;2022-12-18T04:09:26;-1.40;99.90
8780;DHT22;62328;51.19929245;4.42130175;2022-12-18T04:11:53;-1.40;99.90
8780;DHT22;62328;51.19929245;4.42130175;2022-12-18T04:14:23;-1.40;99.90
8780;DHT22;62328;51.19929245;4.42130175;2022-12-18T04:16:50;-1.40;99.90
8780;DHT22;62328;51.19929245;4.42130175;2022-12-18T04:19:17;-1.30;99.90
8780;DHT22;62328;51.19929245;4.42130175;2022-12-18T04:21:44;-1.30;99.90
8780;DHT22;62328;51.19929245;4.42130175;2022-12-18T04:24:11;-1.30;99.90
8780;DHT22;62328;51.19929245;4.42130175;2022-12-18T04:26:37;-1.30;99.90
8780;DHT22;62328;51.19929245;4.42130175;2022-12-18T04:29:04;-1.30;99.90
8780;DHT22;62328;51.19929245;4.42130175;2022-12-18T04:31:33;-1.30;99.90
8780;DHT22;62328;51.19929245;4.42130175;2022-12-18T04:34:00;-1.30;99.90
8780;DHT22;62328;51.19929245;4.42130175;2022-12-18T04:36:27;-1.30;99.90
8780;DHT22;62328;51.19929245;4.42130175;2022-12-18T04:38:55;-1.40;99.90
8780;DHT22;62328;51.19929245;4.42130175;2022-12-18T04:41:22;-1.40;99.90
8780;DHT22;62328;51.19929245;4.42130175;2022-12-18T04:43:48;-1.50;99.90
8780;DHT22;62328;51.19929245;4.42130175;2022-12-18T04:46:15;-1.50;99.90
8780;DHT22;62328;51.19929245;4.42130175;2022-12-18T04:48:45;-1.50;99.90
8780;DHT22;62328;51.19929245;4.42130175;2022-12-18T04:51:12;-1.50;99.90
8780;DHT22;62328;51.19929245;4.42130175;2022-12-18T04:53:39;-1.50;99.90
8780;DHT22;62328;51.19929245;4.42130175;2022-12-18T04:56:09;-1.50;99.90
8780;DHT22;62328;51.19929245;4.42130175;2022-12-18T04:58:36;-1.60;99.90
8780;DHT22;62328;51.19929245;4.42130175;2022-12-18T05:01:04;-1.50;99.90
8780;DHT22;62328;51.19929245;4.42130175;2022-12-18T05:03:31;-1.50;99.90
8780;DHT22;62328;51.19929245;4.42130175;2022-12-18T05:05:59;-1.50;99.90
8780;DHT22;62328;51.19929245;4.42130175;2022-12-18T05:08:28;-1.50;99.90
8780;DHT22;62328;51.19929245;4.42130175;2022-12-18T05:10:58;-1.40;99.90
8780;DHT22;62328;51.19929245;4.42130175;2022-12-18T05:13:25;-1.40;99.90
8780;DHT22;62328;51.19929245;4.42130175;2022-12-18T05:15:53;-1.40;99.90
8780;DHT22;62328;51.19929245;4.42130175;2022-12-18T05:18:20;-1.40;99.90
8780;DHT22;62328;51.19929245;4.42130175;2022-12-18T05:20:47;-1.50;99.90
8780;DHT22;62328;51.19929245;4.42130175;2022-12-18T05:23:15;-1.50;99.90
8780;DHT22;62328;51.19929245;4.42130175;2022-12-18T05:25:46;-1.40;99.90
8780;DHT22;62328;51.19929245;4.42130175;2022-12-18T05:28:12;-1.40;99.90
8780;DHT22;62328;51.19929245;4.42130175;2022-12-18T05:30:39;-1.40;99.90
8780;DHT22;62328;51.19929245;4.42130175;2022-12-18T05:33:06;-1.40;99.90
8780;DHT22;62328;51.19929245;4.42130175;2022-12-18T05:35:33;-1.40;99.90
8780;DHT22;62328;51.19929245;4.42130175;2022-12-18T05:38:00;-1.40;99.90
8780;DHT22;62328;51.19929245;4.42130175;2022-12-18T05:40:28;-1.50;99.90
8780;DHT22;62328;51.19929245;4.42130175;2022-12-18T05:42:55;-1.50;99.90
8780;DHT22;62328;51.19929245;4.42130175;2022-12-18T05:45:22;-1.50;99.90
8780;DHT22;62328;51.19929245;4.42130175;2022-12-18T05:47:49;-1.50;99.90
8780;DHT22;62328;51.19929245;4.42130175;2022-12-18T05:50:16;-1.50;99.90
8780;DHT22;62328;51.19929245;4.42130175;2022-12-18T05:52:43;-1.50;99.90
8780;DHT22;62328;51.19929245;4.42130175;2022-12-18T05:55:10;-1.60;99.90
8780;DHT22;62328;51.19929245;4.42130175;2022-12-18T05:57:38;-1.50;99.90
8780;DHT22;62328;51.19929245;4.42130175;2022-12-18T06:00:06;-1.60;99.90
8780;DHT22;62328;51.19929245;4.42130175;2022-12-18T06:02:34;-1.70;99.90
8780;DHT22;62328;51.19929245;4.42130175;2022-12-18T06:05:00;-1.70;99.90
8780;DHT22;62328;51.19929245;4.42130175;2022-12-18T06:07:27;-1.70;99.90
8780;DHT22;62328;51.19929245;4.42130175;2022-12-18T06:09:54;-1.70;99.90
8780;DHT22;62328;51.19929245;4.42130175;2022-12-18T06:12:21;-1.70;99.90
8780;DHT22;62328;51.19929245;4.42130175;2022-12-18T06:14:49;-1.80;99.90
8780;DHT22;62328;51.19929245;4.42130175;2022-12-18T06:17:16;-1.80;99.90
8780;DHT22;62328;51.19929245;4.42130175;2022-12-18T06:19:43;-1.70;99.90
8780;DHT22;62328;51.19929245;4.42130175;2022-12-18T06:22:10;-1.80;99.90
8780;DHT22;62328;51.19929245;4.42130175;2022-12-18T06:24:37;-1.80;99.90
8780;DHT22;62328;51.19929245;4.42130175;2022-12-18T06:27:04;-1.80;99.90
8780;DHT22;62328;51.19929245;4.42130175;2022-12-18T06:29:31;-1.70;99.90
8780;DHT22;62328;51.19929245;4.42130175;2022-12-18T06:31:59;-1.60;99.90
8780;DHT22;62328;51.19929245;4.42130175;2022-12-18T06:34:26;-1.50;99.90
8780;DHT22;62328;51.19929245;4.42130175;2022-12-18T06:36:53;-1.40;99.90
8780;DHT22;62328;51.19929245;4.42130175;2022-12-18T06:39:21;-1.50;99.90
8780;DHT22;62328;51.19929245;4.42130175;2022-12-18T06:41:48;-1.50;99.90
8780;DHT22;62328;51.19929245;4.42130175;2022-12-18T06:44:15;-1.60;99.90
8780;DHT22;62328;51.19929245;4.42130175;2022-12-18T06:46:41;-1.50;99.90
8780;DHT22;62328;51.19929245;4.42130175;2022-12-18T06:49:10;-1.60;99.90
8780;DHT22;62328;51.19929245;4.42130175;2022-12-18T06:51:38;-1.50;99.90
8780;DHT22;62328;51.19929245;4.42130175;2022-12-18T06:54:05;-1.60;99.90
8780;DHT22;62328;51.19929245;4.42130175;2022-12-18T06:56:32;-1.60;99.90
8780;DHT22;62328;51.19929245;4.42130175;2022-12-18T06:58:58;-1.60;99.90
8780;DHT22;62328;51.19929245;4.42130175;2022-12-18T07:01:26;-1.70;99.90
8780;DHT22;62328;51.19929245;4.42130175;2022-12-18T07:03:53;-1.70;99.90
8780;DHT22;62328;51.19929245;4.42130175;2022-12-18T07:06:23;-1.70;99.90
8780;DHT22;62328;51.19929245;4.42130175;2022-12-18T07:08:53;-1.70;99.90
8780;DHT22;62328;51.19929245;4.42130175;2022-12-18T07:11:20;-1.80;99.90
8780;DHT22;62328;51.19929245;4.42130175;2022-12-18T07:13:47;-1.70;99.90
8780;DHT22;62328;51.19929245;4.42130175;2022-12-18T07:16:17;-1.70;99.90
8780;DHT22;62328;51.19929245;4.42130175;2022-12-18T07:18:44;-1.70;99.90
8780;DHT22;62328;51.19929245;4.42130175;2022-12-18T07:21:13;-1.70;99.90
8780;DHT22;62328;51.19929245;4.42130175;2022-12-18T07:23:42;-1.70;99.90
8780;DHT22;62328;51.19929245;4.42130175;2022-12-18T07:26:11;-1.60;99.90
8780;DHT22;62328;51.19929245;4.42130175;2022-12-18T07:28:40;-1.80;99.90
8780;DHT22;62328;51.19929245;4.42130175;2022-12-18T07:31:10;-1.80;99.90
8780;DHT22;62328;51.19929245;4.42130175;2022-12-18T07:33:37;-1.80;99.90
8780;DHT22;62328;51.19929245;4.42130175;2022-12-18T07:36:06;-1.80;99.90
8780;DHT22;62328;51.19929245;4.42130175;2022-12-18T07:38:34;-1.80;99.90
8780;DHT22;62328;51.19929245;4.42130175;2022-12-18T07:41:03;-1.80;99.90
8780;DHT22;62328;51.19929245;4.42130175;2022-12-18T07:43:31;-1.90;99.90
8780;DHT22;62328;51.19929245;4.42130175;2022-12-18T07:45:57;-1.80;99.90
8780;DHT22;62328;51.19929245;4.42130175;2022-12-18T07:48:24;-1.80;99.90
8780;DHT22;62328;51.19929245;4.42130175;2022-12-18T07:50:52;-1.80;99.90
8780;DHT22;62328;51.19929245;4.42130175;2022-12-18T07:53:19;-1.80;99.90
8780;DHT22;62328;51.19929245;4.42130175;2022-12-18T07:55:46;-1.80;99.90
8780;DHT22;62328;51.19929245;4.42130175;2022-12-18T07:58:14;-1.80;99.90
8780;DHT22;62328;51.19929245;4.42130175;2022-12-18T08:00:41;-1.80;99.90
8780;DHT22;62328;51.19929245;4.42130175;2022-12-18T08:03:10;-1.80;99.90
8780;DHT22;62328;51.19929245;4.42130175;2022-12-18T08:05:36;-1.80;99.90
8780;DHT22;62328;51.19929245;4.42130175;2022-12-18T08:08:03;-1.80;99.90
8780;DHT22;62328;51.19929245;4.42130175;2022-12-18T08:10:30;-1.90;99.90
8780;DHT22;62328;51.19929245;4.42130175;2022-12-18T08:13:00;-1.90;99.90
8780;DHT22;62328;51.19929245;4.42130175;2022-12-18T08:15:28;-1.90;99.90
8780;DHT22;62328;51.19929245;4.42130175;2022-12-18T08:17:56;-1.90;99.90
8780;DHT22;62328;51.19929245;4.42130175;2022-12-18T08:20:23;-1.90;99.90
8780;DHT22;62328;51.19929245;4.42130175;2022-12-18T08:22:50;-1.90;99.90
8780;DHT22;62328;51.19929245;4.42130175;2022-12-18T08:25:17;-2.00;99.90
8780;DHT22;62328;51.19929245;4.42130175;2022-12-18T08:27:44;-1.90;99.90
8780;DHT22;62328;51.19929245;4.42130175;2022-12-18T08:30:11;-1.90;99.90
8780;DHT22;62328;51.19929245;4.42130175;2022-12-18T08:32:40;-2.00;99.90
8780;DHT22;62328;51.19929245;4.42130175;2022-12-18T08:35:07;-2.00;99.90
8780;DHT22;62328;51.19929245;4.42130175;2022-12-18T08:37:35;-1.80;99.90
8780;DHT22;62328;51.19929245;4.42130175;2022-12-18T08:40:02;-1.80;99.90
8780;DHT22;62328;51.19929245;4.42130175;2022-12-18T08:42:29;-1.80;99.90
8780;DHT22;62328;51.19929245;4.42130175;2022-12-18T08:45:15;-1.80;99.90
8780;DHT22;62328;51.19929245;4.42130175;2022-12-18T08:47:46;-1.80;99.90
8780;DHT22;62328;51.19929245;4.42130175;2022-12-18T08:50:13;-1.80;99.90
8780;DHT22;62328;51.19929245;4.42130175;2022-12-18T08:52:40;-1.70;99.90
8780;DHT22;62328;51.19929245;4.42130175;2022-12-18T08:55:09;-1.60;99.90
8780;DHT22;62328;51.19929245;4.42130175;2022-12-18T08:57:36;-1.50;99.90
8780;DHT22;62328;51.19929245;4.42130175;2022-12-18T09:00:06;-1.50;99.90
8780;DHT22;62328;51.19929245;4.42130175;2022-12-18T09:02:34;-1.40;99.90
8780;DHT22;62328;51.19929245;4.42130175;2022-12-18T09:05:02;-1.30;99.90
8780;DHT22;62328;51.19929245;4.42130175;2022-12-18T09:07:29;-1.20;99.90
8780;DHT22;62328;51.19929245;4.42130175;2022-12-18T09:09:56;-1.20;99.90
8780;DHT22;62328;51.19929245;4.42130175;2022-12-18T09:12:23;-1.10;99.90
8780;DHT22;62328;51.19929245;4.42130175;2022-12-18T09:14:50;-1.10;99.90
8780;DHT22;62328;51.19929245;4.42130175;2022-12-18T09:17:17;-1.10;99.90
8780;DHT22;62328;51.19929245;4.42130175;2022-12-18T09:19:44;-1.00;99.90
8780;DHT22;62328;51.19929245;4.42130175;2022-12-18T09:22:12;-0.90;99.90
8780;DHT22;62328;51.19929245;4.42130175;2022-12-18T09:24:39;-0.90;99.90
8780;DHT22;62328;51.19929245;4.42130175;2022-12-18T09:27:06;-0.90;99.90
8780;DHT22;62328;51.19929245;4.42130175;2022-12-18T09:29:33;-0.80;99.90
8780;DHT22;62328;51.19929245;4.42130175;2022-12-18T09:32:00;-0.80;99.90
8780;DHT22;62328;51.19929245;4.42130175;2022-12-18T09:34:27;-0.80;99.90
8780;DHT22;62328;51.19929245;4.42130175;2022-12-18T09:36:57;-0.80;99.90
8780;DHT22;62328;51.19929245;4.42130175;2022-12-18T09:39:25;-0.80;99.90
8780;DHT22;62328;51.19929245;4.42130175;2022-12-18T09:41:54;-0.80;99.90
8780;DHT22;62328;51.19929245;4.42130175;2022-12-18T09:44:27;-0.80;99.90
8780;DHT22;62328;51.19929245;4.42130175;2022-12-18T09:47:13;-0.80;99.90
8780;DHT22;62328;51.19929245;4.42130175;2022-12-18T09:49:43;-0.80;99.90
8780;DHT22;62328;51.19929245;4.42130175;2022-12-18T09:52:14;-0.70;99.90
8780;DHT22;62328;51.19929245;4.42130175;2022-12-18T09:54:46;-0.70;99.90
8780;DHT22;62328;51.19929245;4.42130175;2022-12-18T09:57:16;-0.60;99.90
8780;DHT22;62328;51.19929245;4.42130175;2022-12-18T09:59:47;-0.60;99.90
8780;DHT22;62328;51.19929245;4.42130175;2022-12-18T10:02:18;-0.50;99.90
8780;DHT22;62328;51.19929245;4.42130175;2022-12-18T10:04:54;-0.40;99.90
8780;DHT22;62328;51.19929245;4.42130175;2022-12-18T10:07:30;-0.30;99.90
8780;DHT22;62328;51.19929245;4.42130175;2022-12-18T10:10:06;-0.20;99.90
8780;DHT22;62328;51.19929245;4.42130175;2022-12-18T10:12:39;-0.10;99.90
8780;DHT22;62328;51.19929245;4.42130175;2022-12-18T10:15:14;0.00;99.90
8780;DHT22;62328;51.19929245;4.42130175;2022-12-18T10:17:49;-0.10;99.90
8780;DHT22;62328;51.19929245;4.42130175;2022-12-18T10:20:23;0.00;99.90
8780;DHT22;62328;51.19929245;4.42130175;2022-12-18T10:22:56;0.00;99.90
8780;DHT22;62328;51.19929245;4.42130175;2022-12-18T10:25:31;0.10;99.90
8780;DHT22;62328;51.19929245;4.42130175;2022-12-18T10:28:08;0.00;99.90
8780;DHT22;62328;51.19929245;4.42130175;2022-12-18T10:30:38;0.10;99.90
8780;DHT22;62328;51.19929245;4.42130175;2022-12-18T10:33:05;0.00;99.90
8780;DHT22;62328;51.19929245;4.42130175;2022-12-18T10:35:35;0.10;99.90
8780;DHT22;62328;51.19929245;4.42130175;2022-12-18T10:38:05;0.10;99.90
8780;DHT22;62328;51.19929245;4.42130175;2022-12-18T10:40:47;0.10;99.90
8780;DHT22;62328;51.19929245;4.42130175;2022-12-18T10:43:15;0.20;99.90
8780;DHT22;62328;51.19929245;4.42130175;2022-12-18T10:46:13;0.10;99.90
8780;DHT22;62328;51.19929245;4.42130175;2022-12-18T10:48:54;0.10;99.90
8780;DHT22;62328;51.19929245;4.42130175;2022-12-18T10:51:24;0.10;99.90
8780;DHT22;62328;51.19929245;4.42130175;2022-12-18T10:53:54;0.10;99.90
8780;DHT22;62328;51.19929245;4.42130175;2022-12-18T10:56:24;0.10;99.90
8780;DHT22;62328;51.19929245;4.42130175;2022-12-18T10:58:57;0.20;99.90
8780;DHT22;62328;51.19929245;4.42130175;2022-12-18T11:01:24;0.30;99.90
8780;DHT22;62328;51.19929245;4.42130175;2022-12-18T11:04:00;0.30;99.90
8780;DHT22;62328;51.19929245;4.42130175;2022-12-18T11:06:28;0.40;99.90
8780;DHT22;62328;51.19929245;4.42130175;2022-12-18T11:09:04;0.40;99.90
8780;DHT22;62328;51.19929245;4.42130175;2022-12-18T11:11:33;0.40;99.90
8780;DHT22;62328;51.19929245;4.42130175;2022-12-18T11:14:03;0.40;99.90
8780;DHT22;62328;51.19929245;4.42130175;2022-12-18T11:16:34;0.20;99.90
8780;DHT22;62328;51.19929245;4.42130175;2022-12-18T11:19:27;0.40;99.90
8780;DHT22;62328;51.19929245;4.42130175;2022-12-18T11:21:55;0.50;99.90
8780;DHT22;62328;51.19929245;4.42130175;2022-12-18T11:24:27;0.50;99.90
8780;DHT22;62328;51.19929245;4.42130175;2022-12-18T11:26:58;0.50;99.90
8780;DHT22;62328;51.19929245;4.42130175;2022-12-18T11:29:31;0.50;99.90
8780;DHT22;62328;51.19929245;4.42130175;2022-12-18T11:35:13;0.60;99.90
8780;DHT22;62328;51.19929245;4.42130175;2022-12-18T11:37:45;0.70;99.90
8780;DHT22;62328;51.19929245;4.42130175;2022-12-18T11:40:16;0.70;99.90
8780;DHT22;62328;51.19929245;4.42130175;2022-12-18T11:42:50;0.80;99.90
8780;DHT22;62328;51.19929245;4.42130175;2022-12-18T11:45:29;1.00;99.90
8780;DHT22;62328;51.19929245;4.42130175;2022-12-18T11:48:00;0.90;99.90
8780;DHT22;62328;51.19929245;4.42130175;2022-12-18T11:50:32;1.00;99.90
8780;DHT22;62328;51.19929245;4.42130175;2022-12-18T11:53:00;1.00;99.90
8780;DHT22;62328;51.19929245;4.42130175;2022-12-18T11:55:33;1.00;99.90
8780;DHT22;62328;51.19929245;4.42130175;2022-12-18T11:58:11;1.00;99.90
8780;DHT22;62328;51.19929245;4.42130175;2022-12-18T12:00:46;0.90;99.90
8780;DHT22;62328;51.19929245;4.42130175;2022-12-18T12:03:39;0.90;99.90
8780;DHT22;62328;51.19929245;4.42130175;2022-12-18T12:06:17;0.90;99.90
8780;DHT22;62328;51.19929245;4.42130175;2022-12-18T12:08:59;0.90;99.90
8780;DHT22;62328;51.19929245;4.42130175;2022-12-18T12:11:40;1.00;99.90
8780;DHT22;62328;51.19929245;4.42130175;2022-12-18T12:14:24;1.00;99.90
8780;DHT22;62328;51.19929245;4.42130175;2022-12-18T12:16:58;0.90;99.90
8780;DHT22;62328;51.19929245;4.42130175;2022-12-18T12:19:37;0.90;99.90
8780;DHT22;62328;51.19929245;4.42130175;2022-12-18T12:22:12;1.00;99.90
8780;DHT22;62328;51.19929245;4.42130175;2022-12-18T12:24:50;1.00;99.90
8780;DHT22;62328;51.19929245;4.42130175;2022-12-18T12:27:29;1.00;99.90
8780;DHT22;62328;51.19929245;4.42130175;2022-12-18T12:30:04;1.00;99.90
8780;DHT22;62328;51.19929245;4.42130175;2022-12-18T12:32:55;1.10;99.90
8780;DHT22;62328;51.19929245;4.42130175;2022-12-18T12:35:34;1.10;99.90
8780;DHT22;62328;51.19929245;4.42130175;2022-12-18T12:38:11;1.10;99.90
8780;DHT22;62328;51.19929245;4.42130175;2022-12-18T12:40:42;1.20;99.90
8780;DHT22;62328;51.19929245;4.42130175;2022-12-18T12:43:21;1.30;99.90
8780;DHT22;62328;51.19929245;4.42130175;2022-12-18T12:45:53;1.30;99.90
8780;DHT22;62328;51.19929245;4.42130175;2022-12-18T12:48:31;1.30;99.90
8780;DHT22;62328;51.19929245;4.42130175;2022-12-18T12:51:01;1.30;99.90
8780;DHT22;62328;51.19929245;4.42130175;2022-12-18T12:53:34;1.30;99.90
8780;DHT22;62328;51.19929245;4.42130175;2022-12-18T12:56:01;1.30;99.90
8780;DHT22;62328;51.19929245;4.42130175;2022-12-18T12:58:34;1.40;99.90
8780;DHT22;62328;51.19929245;4.42130175;2022-12-18T13:01:16;1.50;99.90
8780;DHT22;62328;51.19929245;4.42130175;2022-12-18T13:03:52;1.50;99.90
8780;DHT22;62328;51.19929245;4.42130175;2022-12-18T13:06:30;1.50;99.90
8780;DHT22;62328;51.19929245;4.42130175;2022-12-18T13:09:00;1.50;99.90
8780;DHT22;62328;51.19929245;4.42130175;2022-12-18T13:11:46;1.50;99.90
8780;DHT22;62328;51.19929245;4.42130175;2022-12-18T13:14:35;1.50;99.90
8780;DHT22;62328;51.19929245;4.42130175;2022-12-18T13:17:28;1.60;99.90
8780;DHT22;62328;51.19929245;4.42130175;2022-12-18T13:20:05;1.60;99.90
8780;DHT22;62328;51.19929245;4.42130175;2022-12-18T13:22:35;1.60;99.90
8780;DHT22;62328;51.19929245;4.42130175;2022-12-18T13:25:04;1.60;99.90
8780;DHT22;62328;51.19929245;4.42130175;2022-12-18T13:28:12;1.60;99.90
8780;DHT22;62328;51.19929245;4.42130175;2022-12-18T13:30:47;1.60;99.90
8780;DHT22;62328;51.19929245;4.42130175;2022-12-18T13:33:50;1.60;99.90
8780;DHT22;62328;51.19929245;4.42130175;2022-12-18T13:36:28;1.60;99.90
8780;DHT22;62328;51.19929245;4.42130175;2022-12-18T13:39:24;1.70;99.90
8780;DHT22;62328;51.19929245;4.42130175;2022-12-18T13:41:53;1.70;99.90
8780;DHT22;62328;51.19929245;4.42130175;2022-12-18T13:44:26;1.70;99.90
8780;DHT22;62328;51.19929245;4.42130175;2022-12-18T13:46:55;1.70;99.90
8780;DHT22;62328;51.19929245;4.42130175;2022-12-18T13:49:26;1.70;99.90
8780;DHT22;62328;51.19929245;4.42130175;2022-12-18T13:51:57;1.70;99.90
8780;DHT22;62328;51.19929245;4.42130175;2022-12-18T13:54:28;1.60;99.90
8780;DHT22;62328;51.19929245;4.42130175;2022-12-18T13:56:56;1.60;99.90
8780;DHT22;62328;51.19929245;4.42130175;2022-12-18T13:59:25;1.70;99.90